createdAt,value
2019-02-27T00:00:32.199Z,52.55
2019-02-27T00:03:00.790Z,52.41
2019-02-27T00:05:29.231Z,51.71
2019-02-27T00:07:58.345Z,51.71
2019-02-27T00:10:26.754Z,51.58
2019-02-27T00:12:55.148Z,51.45
2019-02-27T00:15:23.891Z,50.54
2019-02-27T00:17:53.199Z,50.54
2019-02-27T00:20:21.586Z,51.30
2019-02-27T00:22:50.759Z,52.48
2019-02-27T00:25:19.981Z,52.43
2019-02-27T00:27:49.311Z,52.62
2019-02-27T00:30:18.507Z,52.62
2019-02-27T00:32:50.916Z,53.02
2019-02-27T00:35:17.026Z,52.66
2019-02-27T00:37:45.424Z,52.94
2019-02-27T00:40:14.053Z,52.99
2019-02-27T00:42:42.812Z,53.37
2019-02-27T00:45:11.977Z,53.37
2019-02-27T00:47:40.427Z,53.67
2019-02-27T00:50:10.243Z,53.67
2019-02-27T00:52:38.733Z,54.00
2019-02-27T00:55:08.457Z,54.64
2019-02-27T00:57:36.853Z,54.50
2019-02-27T01:00:14.589Z,54.49
2019-02-27T01:02:43.872Z,54.49
2019-02-27T01:05:12.535Z,54.52
2019-02-27T01:07:41.350Z,54.72
2019-02-27T01:10:12.286Z,54.68
2019-02-27T01:12:41.617Z,54.39
2019-02-27T01:15:12.489Z,53.62
2019-02-27T01:17:41.042Z,53.01
2019-02-27T01:20:12.117Z,52.41
2019-02-27T01:22:40.769Z,51.48
2019-02-27T01:25:09.610Z,51.56
2019-02-27T01:27:38.673Z,51.56
2019-02-27T01:30:10.137Z,51.65
2019-02-27T01:32:38.524Z,52.00
2019-02-27T01:35:09.587Z,52.25
2019-02-27T01:37:38.068Z,52.25
2019-02-27T01:40:09.511Z,52.55
2019-02-27T01:42:37.896Z,52.84
2019-02-27T01:45:09.856Z,53.16
2019-02-27T01:47:38.250Z,53.55
2019-02-27T01:50:26.859Z,53.29
2019-02-27T01:52:55.325Z,53.29
2019-02-27T01:55:23.713Z,53.60
2019-02-27T01:57:52.449Z,53.60
2019-02-27T02:00:23.279Z,53.72
2019-02-27T02:02:51.763Z,53.14
2019-02-27T02:05:20.161Z,52.45
2019-02-27T02:07:49.348Z,51.16
2019-02-27T02:10:18.125Z,50.27
2019-02-27T02:12:55.659Z,49.43
2019-02-27T02:15:52.760Z,48.75
2019-02-27T02:18:42.167Z,49.24
2019-02-27T02:21:32.112Z,50.09
2019-02-27T02:24:25.911Z,50.71
2019-02-27T02:27:08.852Z,51.10
2019-02-27T02:29:59.746Z,51.61
2019-02-27T02:32:52.337Z,51.70
2019-02-27T02:35:49.778Z,51.70
2019-02-27T02:38:30.509Z,51.83
2019-02-27T02:41:17.474Z,50.39
2019-02-27T02:44:06.917Z,48.84
2019-02-27T02:47:00.884Z,49.60
2019-02-27T02:49:49.138Z,49.99
2019-02-27T02:52:32.758Z,49.81
2019-02-27T02:55:12.726Z,50.10
2019-02-27T02:57:43.745Z,50.58
2019-02-27T03:00:24.013Z,51.21
2019-02-27T03:03:04.314Z,51.16
2019-02-27T03:05:44.707Z,51.39
2019-02-27T03:08:25.032Z,51.93
2019-02-27T03:11:08.726Z,52.20
2019-02-27T03:13:41.857Z,52.65
2019-02-27T03:16:19.169Z,53.63
2019-02-27T03:19:14.621Z,54.04
2019-02-27T03:21:48.708Z,54.21
2019-02-27T03:24:27.939Z,54.02
2019-02-27T03:27:08.406Z,54.41
2019-02-27T03:29:53.394Z,54.78
2019-02-27T03:32:41.210Z,54.85
2019-02-27T03:35:12.761Z,54.63
2019-02-27T03:37:52.559Z,54.63
2019-02-27T03:40:29.512Z,54.54
2019-02-27T03:43:20.829Z,54.76
2019-02-27T03:45:55.239Z,55.33
2019-02-27T03:48:32.409Z,55.87
2019-02-27T03:51:15.814Z,56.34
2019-02-27T03:54:04.924Z,56.30
2019-02-27T03:56:54.180Z,56.27
2019-02-27T03:59:28.335Z,56.25
2019-02-27T04:02:19.242Z,55.87
2019-02-27T04:05:08.590Z,55.91
2019-02-27T04:07:54.205Z,55.87
2019-02-27T04:10:22.602Z,55.70
2019-02-27T04:12:52.281Z,55.53
2019-02-27T04:15:20.754Z,55.53
2019-02-27T04:17:51.830Z,55.94
2019-02-27T04:20:18.342Z,56.24
2019-02-27T04:22:46.721Z,56.35
2019-02-27T04:25:15.174Z,55.92
2019-02-27T04:27:43.569Z,55.01
2019-02-27T04:30:14.926Z,53.36
2019-02-27T04:32:47.665Z,52.36
2019-02-27T04:35:12.799Z,50.80
2019-02-27T04:37:41.184Z,49.42
2019-02-27T04:40:11.195Z,48.86
2019-02-27T04:42:39.893Z,48.48
2019-02-27T04:45:12.365Z,47.84
2019-02-27T04:47:40.633Z,47.30
2019-02-27T04:50:11.290Z,46.77
2019-02-27T04:52:39.135Z,46.75
2019-02-27T04:55:07.922Z,46.74
2019-02-27T04:57:36.300Z,46.31
2019-02-27T05:00:05.933Z,46.09
2019-02-27T05:02:34.313Z,45.38
2019-02-27T05:05:02.752Z,45.38
2019-02-27T05:07:31.221Z,45.65
2019-02-27T05:09:59.612Z,45.72
2019-02-27T05:12:27.989Z,45.89
2019-02-27T05:14:56.377Z,45.93
2019-02-27T05:17:24.761Z,45.68
2019-02-27T05:19:53.146Z,45.88
2019-02-27T05:22:26.428Z,45.71
2019-02-27T05:24:51.641Z,45.70
2019-02-27T05:27:20.019Z,46.08
2019-02-27T05:29:48.636Z,46.21
2019-02-27T05:32:18.237Z,46.47
2019-02-27T05:34:49.784Z,46.70
2019-02-27T05:37:16.913Z,46.43
2019-02-27T05:39:45.293Z,46.50
2019-02-27T05:42:13.664Z,46.54
2019-02-27T05:44:42.057Z,46.82
2019-02-27T05:47:11.088Z,46.97
2019-02-27T05:49:40.324Z,46.94
2019-02-27T05:52:08.794Z,47.04
2019-02-27T05:54:37.290Z,46.99
2019-02-27T05:57:05.799Z,46.74
2019-02-27T05:59:34.190Z,46.75
2019-02-27T06:02:02.575Z,47.03
2019-02-27T06:04:31.325Z,47.21
2019-02-27T06:06:59.714Z,47.45
2019-02-27T06:09:28.101Z,47.29
2019-02-27T06:11:56.582Z,47.28
2019-02-27T06:14:24.976Z,47.45
2019-02-27T06:16:53.380Z,46.97
2019-02-27T06:19:22.019Z,47.14
2019-02-27T06:21:50.398Z,46.99
2019-02-27T06:24:19.186Z,46.77
2019-02-27T06:26:47.563Z,46.90
2019-02-27T06:29:15.953Z,46.99
2019-02-27T06:31:44.567Z,47.09
2019-02-27T06:34:12.931Z,46.46
2019-02-27T06:36:42.882Z,45.60
2019-02-27T06:39:11.710Z,45.92
2019-02-27T06:41:40.095Z,46.03
2019-02-27T06:44:08.535Z,44.30
2019-02-27T06:46:36.922Z,43.61
2019-02-27T06:49:05.299Z,43.28
2019-02-27T06:51:35.862Z,42.61
2019-02-27T06:54:03.831Z,42.33
2019-02-27T06:56:32.454Z,42.08
2019-02-27T06:59:00.856Z,41.89
2019-02-27T07:01:29.253Z,42.48
2019-02-27T07:03:57.662Z,41.54
2019-02-27T07:06:26.064Z,42.79
2019-02-27T07:08:54.476Z,43.16
2019-02-27T07:11:22.911Z,43.76
2019-02-27T07:13:51.345Z,43.33
2019-02-27T07:16:20.438Z,43.33
2019-02-27T07:18:50.174Z,43.79
2019-02-27T07:21:18.559Z,44.65
2019-02-27T07:23:46.965Z,43.46
2019-02-27T07:26:15.815Z,44.26
2019-02-27T07:28:45.278Z,43.99
2019-02-27T07:31:17.592Z,41.81
2019-02-27T07:33:43.768Z,41.81
2019-02-27T07:36:12.651Z,41.90
2019-02-27T07:38:41.038Z,41.17
2019-02-27T07:41:09.712Z,41.99
2019-02-27T07:43:38.613Z,41.86
2019-02-27T07:46:07.003Z,41.86
2019-02-27T07:48:35.465Z,40.81
2019-02-27T07:51:03.879Z,40.86
2019-02-27T07:53:32.270Z,41.44
2019-02-27T07:56:00.787Z,40.62
2019-02-27T07:58:33.654Z,40.62
2019-02-27T08:00:59.434Z,40.76
2019-02-27T08:03:27.991Z,40.11
2019-02-27T08:05:56.378Z,41.50
2019-02-27T08:08:24.772Z,44.35
2019-02-27T08:10:53.436Z,44.35
2019-02-27T08:13:21.814Z,46.13
2019-02-27T08:15:50.193Z,46.13
2019-02-27T08:18:23.139Z,46.24
2019-02-27T08:20:48.884Z,46.33
2019-02-27T08:23:17.353Z,46.24
2019-02-27T08:25:45.763Z,46.13
2019-02-27T08:28:14.415Z,46.04
2019-02-27T08:30:43.103Z,46.04
2019-02-27T08:33:11.790Z,46.21
2019-02-27T08:35:40.248Z,45.79
2019-02-27T08:38:08.953Z,45.28
2019-02-27T08:40:37.464Z,46.09
2019-02-27T08:43:06.128Z,46.65
2019-02-27T08:45:34.509Z,46.55
2019-02-27T08:48:03.115Z,45.52
2019-02-27T08:50:32.292Z,45.52
2019-02-27T08:53:00.935Z,42.28
2019-02-27T08:55:29.320Z,40.29
2019-02-27T08:57:57.734Z,40.00
2019-02-27T09:00:31.596Z,40.00
2019-02-27T09:03:02.852Z,40.15
2019-02-27T09:05:31.025Z,37.41
2019-02-27T09:07:59.412Z,36.52
2019-02-27T09:13:05.472Z,35.42
2019-02-27T09:15:28.323Z,35.23
2019-02-27T09:17:59.292Z,34.98
2019-02-27T09:20:26.815Z,33.31
2019-02-27T09:22:55.875Z,33.84
2019-02-27T09:25:24.965Z,33.79
2019-02-27T09:27:53.737Z,33.60
2019-02-27T09:30:29.007Z,32.91
2019-02-27T09:32:53.810Z,32.16
2019-02-27T09:35:22.570Z,32.07
2019-02-27T09:37:52.016Z,31.37
2019-02-27T09:40:22.871Z,32.29
2019-02-27T09:42:52.987Z,30.89
2019-02-27T09:45:27.334Z,29.29
2019-02-27T09:47:59.634Z,31.74
2019-02-27T09:50:36.708Z,28.66
2019-02-27T09:53:05.456Z,28.88
2019-02-27T09:55:34.398Z,29.49
2019-02-27T09:58:03.276Z,29.14
2019-02-27T10:00:36.939Z,29.40
2019-02-27T10:03:05.583Z,28.67
2019-02-27T10:05:36.660Z,27.92
2019-02-27T10:08:05.152Z,29.08
2019-02-27T10:10:33.996Z,28.10
2019-02-27T10:13:03.314Z,27.00
2019-02-27T10:15:34.407Z,28.78
2019-02-27T10:18:02.942Z,26.81
2019-02-27T10:20:31.333Z,27.07
2019-02-27T10:22:59.738Z,27.85
2019-02-27T10:25:28.442Z,27.34
2019-02-27T10:27:57.118Z,25.76
2019-02-27T10:30:25.605Z,26.01
2019-02-27T10:32:54.063Z,25.47
2019-02-27T10:35:23.058Z,25.69
2019-02-27T10:37:54.304Z,25.71
2019-02-27T10:40:23.739Z,25.19
2019-02-27T10:42:52.410Z,25.75
2019-02-27T10:45:21.101Z,25.21
2019-02-27T10:47:49.484Z,24.99
2019-02-27T10:50:18.270Z,25.30
2019-02-27T10:52:46.650Z,25.00
2019-02-27T10:55:20.378Z,25.03
2019-02-27T10:57:48.960Z,24.71
2019-02-27T11:00:30.256Z,25.16
2019-02-27T11:02:59.733Z,24.96
2019-02-27T11:05:30.164Z,24.46
2019-02-27T11:07:58.784Z,23.37
2019-02-27T11:10:27.239Z,24.15
2019-02-27T11:12:56.196Z,23.34
2019-02-27T11:15:24.589Z,23.69
2019-02-27T11:17:53.544Z,23.09
2019-02-27T11:20:24.591Z,24.25
2019-02-27T11:22:52.947Z,22.67
2019-02-27T11:25:26.549Z,23.72
2019-02-27T11:27:54.945Z,24.05
2019-02-27T11:30:29.113Z,23.11
2019-02-27T11:32:58.054Z,23.99
2019-02-27T11:35:26.473Z,23.43
2019-02-27T11:37:55.130Z,23.77
2019-02-27T11:40:25.871Z,23.15
2019-02-27T11:42:54.278Z,24.80
2019-02-27T11:45:24.586Z,23.57
2019-02-27T11:47:53.185Z,23.49
2019-02-27T11:50:21.721Z,22.90
2019-02-27T11:52:50.682Z,25.03
2019-02-27T11:55:24.390Z,24.55
2019-02-27T11:57:52.679Z,23.37
2019-02-27T12:00:27.627Z,24.50
2019-02-27T12:02:56.569Z,23.33
2019-02-27T12:05:31.379Z,24.31
2019-02-27T12:07:56.072Z,25.05
2019-02-27T12:10:29.697Z,24.24
2019-02-27T12:13:00.671Z,23.62
2019-02-27T12:15:28.380Z,24.77
2019-02-27T12:18:00.316Z,24.46
2019-02-27T12:20:27.290Z,23.84
2019-02-27T12:22:55.974Z,23.80
2019-02-27T12:25:29.052Z,25.69
2019-02-27T12:27:56.420Z,24.60
2019-02-27T12:30:26.946Z,23.44
2019-02-27T12:32:56.717Z,23.81
2019-02-27T12:35:33.744Z,23.62
2019-02-27T12:38:06.814Z,24.29
2019-02-27T12:40:32.317Z,24.69
2019-02-27T12:43:00.957Z,25.50
2019-02-27T12:45:32.395Z,23.47
2019-02-27T12:48:00.773Z,25.28
2019-02-27T12:50:31.447Z,24.39
2019-02-27T12:53:00.437Z,23.69
2019-02-27T12:55:28.918Z,25.77
2019-02-27T12:57:58.186Z,24.59
2019-02-27T13:00:31.660Z,25.21
2019-02-27T13:03:00.117Z,26.46
2019-02-27T13:05:29.249Z,25.28
2019-02-27T13:07:57.893Z,24.60
2019-02-27T13:10:27.452Z,25.68
2019-02-27T13:12:57.547Z,23.94
2019-02-27T13:15:30.006Z,25.46
2019-02-27T13:17:58.529Z,25.12
2019-02-27T13:20:29.436Z,23.80
2019-02-27T13:22:57.820Z,24.69
2019-02-27T13:25:26.276Z,25.34
2019-02-27T13:27:54.963Z,23.40
2019-02-27T13:30:24.590Z,25.24
2019-02-27T13:32:52.992Z,26.28
2019-02-27T13:35:23.240Z,24.70
2019-02-27T13:37:52.301Z,25.77
2019-02-27T13:40:28.110Z,24.15
2019-02-27T13:42:56.591Z,24.04
2019-02-27T13:45:27.307Z,23.82
2019-02-27T13:47:55.792Z,23.97
2019-02-27T13:50:26.866Z,25.21
2019-02-27T13:52:54.990Z,25.41
2019-02-27T13:55:24.881Z,25.56
2019-02-27T13:57:53.272Z,24.48
2019-02-27T14:00:25.847Z,25.31
2019-02-27T14:02:54.623Z,24.89
2019-02-27T14:05:23.366Z,24.66
2019-02-27T14:07:57.146Z,25.11
2019-02-27T14:10:25.160Z,26.69
2019-02-27T14:12:53.555Z,25.04
2019-02-27T14:15:26.967Z,26.48
2019-02-27T14:17:53.122Z,25.30
2019-02-27T14:20:26.937Z,26.88
2019-02-27T14:22:53.901Z,25.57
2019-02-27T14:25:28.494Z,26.42
2019-02-27T14:27:54.965Z,25.18
2019-02-27T14:30:29.254Z,24.57
2019-02-27T14:32:57.904Z,24.82
2019-02-27T14:35:26.291Z,24.69
2019-02-27T14:37:54.683Z,25.11
2019-02-27T14:40:23.085Z,25.49
2019-02-27T14:42:54.925Z,25.28
2019-02-27T14:45:23.976Z,25.19
2019-02-27T14:47:52.883Z,25.33
2019-02-27T14:50:23.107Z,25.11
2019-02-27T14:52:51.799Z,24.99
2019-02-27T14:55:21.224Z,25.01
2019-02-27T14:57:51.089Z,27.30
2019-02-27T15:00:40.904Z,26.87
2019-02-27T15:03:08.955Z,26.04
2019-02-27T15:05:43.095Z,26.49
2019-02-27T15:08:07.912Z,24.49
2019-02-27T15:10:40.050Z,24.59
2019-02-27T15:13:06.496Z,24.29
2019-02-27T15:15:34.863Z,25.05
2019-02-27T15:18:03.255Z,26.93
2019-02-27T15:20:31.929Z,24.84
2019-02-27T15:23:00.318Z,25.87
2019-02-27T15:25:28.766Z,25.72
2019-02-27T15:27:58.844Z,26.78
2019-02-27T15:30:29.402Z,25.34
2019-02-27T15:32:57.786Z,25.54
2019-02-27T15:35:28.309Z,25.65
2019-02-27T15:37:56.478Z,25.60
2019-02-27T15:40:29.695Z,26.46
2019-02-27T15:42:57.555Z,26.13
2019-02-27T15:45:27.320Z,25.83
2019-02-27T15:47:55.780Z,25.08
2019-02-27T15:50:26.699Z,24.93
2019-02-27T15:52:56.075Z,24.42
2019-02-27T15:55:25.030Z,24.29
2019-02-27T15:57:54.219Z,25.17
2019-02-27T16:00:24.958Z,26.14
2019-02-27T16:02:53.619Z,26.68
2019-02-27T16:05:22.714Z,25.98
2019-02-27T16:07:51.190Z,25.56
2019-02-27T16:10:21.952Z,25.59
2019-02-27T16:12:50.505Z,25.76
2019-02-27T16:15:20.764Z,25.68
2019-02-27T16:17:49.527Z,26.07
2019-02-27T16:20:28.711Z,25.97
2019-02-27T16:22:57.337Z,26.26
2019-02-27T16:25:27.260Z,27.59
2019-02-27T16:27:56.190Z,28.02
2019-02-27T16:30:37.115Z,27.25
2019-02-27T16:33:07.029Z,27.41
2019-02-27T16:35:41.516Z,28.95
2019-02-27T16:38:05.724Z,29.11
2019-02-27T16:40:34.115Z,30.70
2019-02-27T16:43:02.530Z,30.40
2019-02-27T16:45:38.880Z,30.85
2019-02-27T16:48:07.643Z,31.64
2019-02-27T16:50:36.034Z,30.26
2019-02-27T16:53:04.756Z,29.34
2019-02-27T16:55:36.326Z,29.89
2019-02-27T16:58:04.192Z,29.66
2019-02-27T17:00:34.418Z,29.49
2019-02-27T17:03:03.159Z,30.58
2019-02-27T17:05:31.962Z,33.94
2019-02-27T17:08:02.423Z,34.18
2019-02-27T17:10:37.390Z,32.96
2019-02-27T17:13:05.921Z,33.64
2019-02-27T17:15:35.920Z,33.72
2019-02-27T17:18:04.722Z,32.71
2019-02-27T17:20:34.859Z,31.62
2019-02-27T17:23:10.475Z,32.61
2019-02-27T17:25:35.095Z,33.75
2019-02-27T17:28:03.509Z,35.58
2019-02-27T17:30:37.695Z,36.56
2019-02-27T17:33:07.315Z,36.07
2019-02-27T17:35:35.748Z,35.19
2019-02-27T17:38:04.338Z,35.77
2019-02-27T17:40:36.298Z,34.84
2019-02-27T17:43:03.072Z,32.86
2019-02-27T17:45:31.763Z,32.28
2019-02-27T17:48:00.114Z,33.13
2019-02-27T17:50:31.735Z,34.32
2019-02-27T17:52:59.369Z,33.89
2019-02-27T17:55:27.746Z,34.06
2019-02-27T17:57:58.485Z,34.59
2019-02-27T18:00:41.243Z,35.38
2019-02-27T18:03:09.648Z,36.64
2019-02-27T18:05:38.177Z,33.98
2019-02-27T18:08:06.750Z,34.36
2019-02-27T18:10:37.524Z,33.76
2019-02-27T18:13:05.388Z,34.36
2019-02-27T18:15:34.001Z,34.24
2019-02-27T18:18:02.408Z,34.21
2019-02-27T18:20:32.132Z,33.62
2019-02-27T18:23:00.764Z,35.00
2019-02-27T18:25:29.245Z,35.42
2019-02-27T18:27:59.759Z,36.06
2019-02-27T18:30:27.961Z,36.26
2019-02-27T18:32:56.344Z,36.43
2019-02-27T18:35:28.810Z,36.44
2019-02-27T18:37:55.211Z,36.21
2019-02-27T18:40:23.677Z,37.55
2019-02-27T18:42:55.253Z,38.40
2019-02-27T18:45:27.359Z,35.86
2019-02-27T18:47:55.975Z,36.90
2019-02-27T18:50:25.760Z,36.73
2019-02-27T18:52:54.732Z,37.50
2019-02-27T18:55:23.155Z,38.47
2019-02-27T18:57:51.585Z,38.63
2019-02-27T19:00:24.917Z,39.16
2019-02-27T19:03:01.368Z,39.38
2019-02-27T19:05:29.908Z,39.30
2019-02-27T19:07:58.630Z,36.33
2019-02-27T19:10:27.188Z,36.68
2019-02-27T19:12:55.583Z,36.90
2019-02-27T19:15:25.662Z,36.73
2019-02-27T19:17:54.603Z,37.54
2019-02-27T19:20:42.033Z,37.64
2019-02-27T19:23:10.493Z,37.72
2019-02-27T19:25:39.006Z,38.77
2019-02-27T19:28:07.532Z,39.07
2019-02-27T19:30:38.692Z,39.11
2019-02-27T19:33:07.341Z,39.56
2019-02-27T19:49:05.686Z,39.52
2019-02-27T19:51:46.957Z,39.92
